Time;durP1;ratioP1;P1;durP2;ratioP2;P2;SDS_P1;SDS_P2;PMS_P1;PMS_P2;Temp;Humidity;BMP_temperature;BMP_pressure;BME280_temperature;BME280_humidity;BME280_pressure;Samples;Min_cycle;Max_cycle;Signal;HPM_P1;HPM_P2
2022/03/29 00:00:33;;;;;;;23.38;11.40;;;;;;;;;;4952377;29;20027;-60
2022/03/29 00:02:59;;;;;;;24.80;12.40;;;;;;;;;;4952797;29;20086;-60
2022/03/29 00:05:25;;;;;;;21.00;11.38;;;;;;;;;;4952364;29;20031;-58
2022/03/29 00:07:51;;;;;;;24.40;11.57;;;;;;;;;;4952395;29;20037;-59
2022/03/29 00:10:17;;;;;;;22.60;11.95;;;;;;;;;;4952706;29;20039;-58
2022/03/29 00:12:43;;;;;;;19.42;11.52;;;;;;;;;;4952404;29;20035;-61
2022/03/29 00:15:10;;;;;;;22.85;11.32;;;;;;;;;;4952418;29;20532;-61
2022/03/29 00:17:36;;;;;;;22.70;11.60;;;;;;;;;;4952406;29;20050;-60
2022/03/29 00:20:03;;;;;;;22.73;11.70;;;;;;;;;;4952403;29;20126;-59
2022/03/29 00:22:29;;;;;;;24.05;11.88;;;;;;;;;;4952268;29;20031;-61
2022/03/29 00:24:55;;;;;;;26.38;13.27;;;;;;;;;;4952601;28;20451;-60
2022/03/29 00:27:21;;;;;;;25.45;12.80;;;;;;;;;;4955855;29;20387;-60
2022/03/29 00:29:48;;;;;;;22.55;11.05;;;;;;;;;;4955665;28;20027;-62
2022/03/29 00:32:15;;;;;;;20.25;10.73;;;;;;;;;;4955886;29;20440;-61
2022/03/29 00:34:42;;;;;;;20.23;10.45;;;;;;;;;;4955620;29;20526;-61
2022/03/29 00:37:08;;;;;;;19.33;10.65;;;;;;;;;;4955478;29;20075;-61
2022/03/29 00:39:35;;;;;;;22.33;10.73;;;;;;;;;;4955913;29;20062;-61
2022/03/29 00:42:01;;;;;;;20.45;10.23;;;;;;;;;;4955523;29;20724;-60
2022/03/29 00:44:31;;;;;;;19.23;10.60;;;;;;;;;;4955602;29;20119;-60
2022/03/29 00:46:58;;;;;;;18.30;10.10;;;;;;;;;;4938455;29;20037;-60
2022/03/29 00:49:24;;;;;;;21.08;10.43;;;;;;;;;;4955562;29;20027;-60
2022/03/29 00:51:54;;;;;;;22.85;10.73;;;;;;;;;;4955444;29;20039;-60
2022/03/29 00:54:21;;;;;;;23.80;10.95;;;;;;;;;;4955535;29;20020;-59
2022/03/29 00:56:47;;;;;;;19.80;10.63;;;;;;;;;;4955370;29;20547;-59
2022/03/29 00:59:13;;;;;;;19.38;10.45;;;;;;;;;;4955371;28;20496;-60
2022/03/29 01:01:39;;;;;;;17.42;10.35;;;;;;;;;;4955390;29;20031;-59
2022/03/29 01:04:06;;;;;;;17.60;9.52;;;;;;;;;;4955284;29;20421;-61
2022/03/29 01:06:33;;;;;;;24.45;10.40;;;;;;;;;;4955041;29;20070;-59
2022/03/29 01:08:59;;;;;;;21.50;10.88;;;;;;;;;;4954917;29;20028;-59
2022/03/29 01:11:26;;;;;;;20.25;10.60;;;;;;;;;;4954872;29;20476;-60
2022/03/29 01:13:52;;;;;;;23.00;10.10;;;;;;;;;;4954938;29;20027;-59
2022/03/29 01:19:05;;;;;;;22.23;11.10;;;;;;;;;;4955248;29;20038;-59
2022/03/29 01:21:33;;;;;;;24.27;10.73;;;;;;;;;;4954515;29;20449;-60
2022/03/29 01:24:00;;;;;;;24.17;11.52;;;;;;;;;;4954656;29;20399;-59
2022/03/29 01:26:26;;;;;;;21.15;11.20;;;;;;;;;;4954655;29;20031;-60
2022/03/29 01:28:53;;;;;;;23.85;11.50;;;;;;;;;;4954622;28;20038;-59
2022/03/29 01:31:19;;;;;;;24.65;12.05;;;;;;;;;;4954010;29;20046;-60
2022/03/29 01:33:45;;;;;;;28.70;12.57;;;;;;;;;;4950764;29;20059;-60
2022/03/29 01:36:11;;;;;;;23.52;11.13;;;;;;;;;;4951078;28;20190;-59
2022/03/29 01:38:37;;;;;;;26.95;11.45;;;;;;;;;;4954614;29;20042;-60
2022/03/29 01:41:05;;;;;;;21.48;10.85;;;;;;;;;;4953940;29;20027;-60
2022/03/29 01:43:32;;;;;;;23.88;11.02;;;;;;;;;;4950738;29;20026;-60
2022/03/29 01:45:58;;;;;;;25.88;12.05;;;;;;;;;;4951961;29;20035;-59
2022/03/29 01:48:27;;;;;;;20.52;10.95;;;;;;;;;;4954499;29;20544;-59
2022/03/29 01:50:53;;;;;;;25.08;11.40;;;;;;;;;;4954345;29;20031;-59
2022/03/29 01:53:27;;;;;;;23.10;11.73;;;;;;;;;;4954332;29;20514;-59
2022/03/29 01:56:00;;;;;;;23.85;11.25;;;;;;;;;;4954367;29;20372;-60
2022/03/29 01:58:27;;;;;;;21.25;10.90;;;;;;;;;;4954237;29;20027;-61
2022/03/29 02:00:53;;;;;;;22.63;11.75;;;;;;;;;;4954408;29;20484;-60
2022/03/29 02:03:20;;;;;;;22.75;11.32;;;;;;;;;;4956000;29;20510;-59
2022/03/29 02:05:46;;;;;;;23.33;11.77;;;;;;;;;;4955553;29;20030;-60
2022/03/29 02:08:12;;;;;;;27.17;11.38;;;;;;;;;;4954107;29;20491;-61
2022/03/29 02:10:38;;;;;;;24.90;11.32;;;;;;;;;;4953742;29;20042;-59
2022/03/29 02:13:04;;;;;;;23.98;11.10;;;;;;;;;;4954159;29;20424;-61
2022/03/29 02:15:31;;;;;;;23.17;11.15;;;;;;;;;;4953814;29;20086;-59
2022/03/29 02:17:57;;;;;;;22.00;11.32;;;;;;;;;;4953676;29;20034;-59
2022/03/29 02:20:24;;;;;;;32.75;11.30;;;;;;;;;;4953902;29;20035;-59
2022/03/29 02:22:50;;;;;;;19.60;11.23;;;;;;;;;;4953744;29;20509;-59
2022/03/29 02:25:16;;;;;;;23.77;11.35;;;;;;;;;;4953631;29;20118;-61
2022/03/29 02:27:43;;;;;;;18.90;10.40;;;;;;;;;;4953743;29;20098;-59
2022/03/29 02:30:11;;;;;;;20.45;10.98;;;;;;;;;;4953478;28;20475;-59
2022/03/29 02:32:37;;;;;;;21.75;11.75;;;;;;;;;;4953418;29;20039;-61
2022/03/29 02:35:03;;;;;;;19.45;10.90;;;;;;;;;;4953551;29;20074;-61
2022/03/29 02:37:29;;;;;;;24.00;11.45;;;;;;;;;;4953377;29;20043;-59
2022/03/29 02:39:55;;;;;;;21.85;10.90;;;;;;;;;;4953402;29;20416;-61
2022/03/29 02:42:21;;;;;;;19.73;11.70;;;;;;;;;;4953400;29;20365;-59
2022/03/29 02:44:48;;;;;;;24.95;11.57;;;;;;;;;;4953340;29;20074;-59
2022/03/29 02:47:14;;;;;;;23.45;12.05;;;;;;;;;;4953097;29;20051;-59
2022/03/29 02:49:40;;;;;;;20.27;11.25;;;;;;;;;;4952806;28;20035;-59
2022/03/29 02:52:06;;;;;;;22.05;11.35;;;;;;;;;;4953029;29;20250;-61
2022/03/29 02:54:32;;;;;;;20.42;11.50;;;;;;;;;;4953179;29;20035;-61
2022/03/29 02:56:58;;;;;;;24.38;11.15;;;;;;;;;;4953279;29;20031;-60
2022/03/29 02:59:24;;;;;;;23.70;11.43;;;;;;;;;;4952957;29;20032;-59
2022/03/29 03:01:50;;;;;;;20.77;11.10;;;;;;;;;;4953186;29;20035;-61
2022/03/29 03:04:16;;;;;;;28.40;12.02;;;;;;;;;;4952780;29;20034;-60
2022/03/29 03:06:43;;;;;;;20.38;11.15;;;;;;;;;;4953010;29;20058;-61
2022/03/29 03:09:09;;;;;;;22.45;11.75;;;;;;;;;;4953329;29;20031;-60
2022/03/29 03:11:36;;;;;;;22.23;11.35;;;;;;;;;;4953074;29;20072;-58
2022/03/29 03:14:02;;;;;;;21.55;11.75;;;;;;;;;;4953122;29;20026;-60
2022/03/29 03:16:28;;;;;;;26.10;11.77;;;;;;;;;;4952867;29;20035;-60
2022/03/29 03:18:54;;;;;;;19.30;11.25;;;;;;;;;;4952794;29;20154;-59
2022/03/29 03:21:20;;;;;;;26.45;12.85;;;;;;;;;;4953363;29;20142;-61
2022/03/29 03:23:46;;;;;;;25.88;12.85;;;;;;;;;;4953017;29;20035;-59
2022/03/29 03:26:13;;;;;;;33.33;16.30;;;;;;;;;;4952888;29;20107;-58
2022/03/29 03:28:39;;;;;;;36.50;16.98;;;;;;;;;;4952878;28;20030;-59
2022/03/29 03:31:05;;;;;;;32.60;16.92;;;;;;;;;;4952764;29;20035;-60
2022/03/29 03:33:31;;;;;;;31.15;15.95;;;;;;;;;;4952732;29;20453;-58
2022/03/29 03:35:57;;;;;;;30.83;15.85;;;;;;;;;;4952821;29;20035;-57
2022/03/29 03:38:23;;;;;;;32.90;15.82;;;;;;;;;;4952974;29;20034;-60
2022/03/29 03:40:49;;;;;;;30.65;16.25;;;;;;;;;;4952451;29;20432;-58
2022/03/29 03:43:15;;;;;;;34.60;16.52;;;;;;;;;;4952734;29;20400;-59
2022/03/29 03:45:41;;;;;;;35.08;16.50;;;;;;;;;;4952675;29;20386;-58
2022/03/29 03:48:07;;;;;;;29.63;16.70;;;;;;;;;;4952594;29;20078;-60
2022/03/29 03:50:33;;;;;;;35.25;17.75;;;;;;;;;;4952936;29;20116;-60
2022/03/29 03:53:03;;;;;;;31.60;16.85;;;;;;;;;;4952613;29;20063;-59
2022/03/29 03:55:29;;;;;;;40.28;16.30;;;;;;;;;;4952444;29;20026;-59
2022/03/29 03:57:55;;;;;;;29.15;15.77;;;;;;;;;;4952648;29;20508;-60
2022/03/29 04:00:23;;;;;;;32.92;16.83;;;;;;;;;;4952882;28;20035;-60
2022/03/29 04:02:50;;;;;;;32.15;16.90;;;;;;;;;;4956423;29;20153;-61
2022/03/29 04:05:16;;;;;;;36.30;18.00;;;;;;;;;;4956362;29;20087;-60
2022/03/29 04:07:42;;;;;;;39.17;20.33;;;;;;;;;;4956050;29;20035;-59
2022/03/29 04:10:09;;;;;;;34.72;17.70;;;;;;;;;;4956125;29;20027;-60
2022/03/29 04:12:35;;;;;;;35.47;16.92;;;;;;;;;;4956244;29;20035;-60
2022/03/29 04:15:02;;;;;;;35.08;16.42;;;;;;;;;;4955980;29;20049;-61
2022/03/29 04:17:28;;;;;;;31.55;17.38;;;;;;;;;;4955941;29;20043;-61
2022/03/29 04:19:55;;;;;;;39.53;18.02;;;;;;;;;;4956015;29;20030;-60
2022/03/29 04:22:21;;;;;;;33.53;16.58;;;;;;;;;;4956043;29;20510;-61
2022/03/29 04:24:47;;;;;;;36.33;15.95;;;;;;;;;;4955749;29;20031;-59
2022/03/29 04:27:13;;;;;;;36.33;16.63;;;;;;;;;;4955775;29;20027;-62
2022/03/29 04:29:39;;;;;;;36.97;15.82;;;;;;;;;;4955822;28;20122;-62
2022/03/29 04:32:05;;;;;;;38.13;16.42;;;;;;;;;;4955589;29;20054;-61
2022/03/29 04:34:32;;;;;;;28.58;15.32;;;;;;;;;;4955623;29;20059;-61
2022/03/29 04:36:59;;;;;;;46.05;25.58;;;;;;;;;;4955369;29;20388;-60
2022/03/29 04:39:25;;;;;;;41.17;21.98;;;;;;;;;;4955392;29;20023;-61
2022/03/29 04:41:51;;;;;;;49.78;26.02;;;;;;;;;;4955600;29;20035;-60
2022/03/29 04:44:17;;;;;;;56.58;30.10;;;;;;;;;;4955664;29;20027;-59
2022/03/29 04:46:44;;;;;;;49.38;25.55;;;;;;;;;;4955589;29;20031;-61
2022/03/29 04:49:10;;;;;;;57.30;27.85;;;;;;;;;;4955415;29;20433;-61
2022/03/29 04:51:36;;;;;;;47.35;24.40;;;;;;;;;;4955874;29;20460;-60
2022/03/29 04:54:03;;;;;;;50.05;27.02;;;;;;;;;;4955307;29;20079;-60
2022/03/29 04:56:29;;;;;;;42.42;22.55;;;;;;;;;;4955068;29;20043;-61
2022/03/29 04:58:55;;;;;;;40.40;19.08;;;;;;;;;;4955416;28;20023;-60
2022/03/29 05:01:21;;;;;;;36.92;17.08;;;;;;;;;;4955162;29;20031;-60
2022/03/29 05:03:47;;;;;;;32.17;17.90;;;;;;;;;;4955171;29;20027;-59
2022/03/29 05:06:13;;;;;;;34.63;16.88;;;;;;;;;;4955069;29;20095;-59
2022/03/29 05:08:39;;;;;;;36.10;17.73;;;;;;;;;;4954964;29;20035;-59
2022/03/29 05:11:05;;;;;;;37.55;18.52;;;;;;;;;;4954587;28;20027;-60
2022/03/29 05:13:32;;;;;;;40.40;21.55;;;;;;;;;;4955162;29;20027;-61
2022/03/29 05:15:58;;;;;;;39.80;19.95;;;;;;;;;;4954727;29;20027;-60
2022/03/29 05:18:24;;;;;;;50.22;23.88;;;;;;;;;;4954595;29;20425;-63
2022/03/29 05:20:51;;;;;;;45.28;22.33;;;;;;;;;;4954677;29;20058;-64
2022/03/29 05:23:17;;;;;;;45.15;22.83;;;;;;;;;;4954624;29;20035;-64
2022/03/29 05:25:43;;;;;;;56.33;24.70;;;;;;;;;;4954780;29;20443;-63
2022/03/29 05:28:09;;;;;;;53.05;23.27;;;;;;;;;;4954969;29;20114;-64
2022/03/29 05:30:36;;;;;;;64.53;24.25;;;;;;;;;;4954384;28;20472;-61
2022/03/29 05:33:02;;;;;;;42.10;20.92;;;;;;;;;;4967988;28;20055;-64
2022/03/29 05:35:30;;;;;;;37.88;20.85;;;;;;;;;;4939668;28;20504;-64
2022/03/29 05:38:00;;;;;;;36.45;20.95;;;;;;;;;;4970080;28;20043;-63
2022/03/29 05:40:26;;;;;;;39.40;20.85;;;;;;;;;;4955362;28;20456;-63
2022/03/29 05:42:53;;;;;;;39.17;22.65;;;;;;;;;;4953330;29;20027;-63
2022/03/29 05:45:19;;;;;;;42.10;22.17;;;;;;;;;;4950451;29;20020;-63
2022/03/29 05:50:30;;;;;;;42.88;22.63;;;;;;;;;;4952026;29;20091;-64
2022/03/29 05:52:57;;;;;;;42.33;23.75;;;;;;;;;;4952702;29;20031;-62
2022/03/29 05:55:24;;;;;;;37.10;22.98;;;;;;;;;;4952988;29;20027;-62
2022/03/29 05:57:50;;;;;;;44.65;23.70;;;;;;;;;;4952843;28;20035;-63
2022/03/29 06:00:17;;;;;;;47.47;24.73;;;;;;;;;;4952565;29;20039;-62
2022/03/29 06:02:43;;;;;;;46.35;24.55;;;;;;;;;;4952263;29;20119;-62
2022/03/29 06:05:10;;;;;;;44.22;25.17;;;;;;;;;;4952719;29;20569;-62
2022/03/29 06:07:36;;;;;;;45.00;27.35;;;;;;;;;;4952442;29;20043;-63
2022/03/29 06:10:08;;;;;;;43.35;26.13;;;;;;;;;;4953197;29;20472;-62
2022/03/29 06:12:36;;;;;;;48.67;27.10;;;;;;;;;;4952356;29;20031;-62
2022/03/29 06:15:06;;;;;;;42.17;26.08;;;;;;;;;;4950361;29;20054;-61
2022/03/29 06:17:32;;;;;;;42.83;26.52;;;;;;;;;;4952369;29;20063;-62
2022/03/29 06:19:58;;;;;;;45.85;26.30;;;;;;;;;;4952601;29;20420;-62
2022/03/29 06:22:24;;;;;;;56.30;31.38;;;;;;;;;;4952533;28;20451;-62
2022/03/29 06:24:50;;;;;;;172.50;102.40;;;;;;;;;;4952616;29;20036;-62
2022/03/29 06:27:17;;;;;;;81.97;50.75;;;;;;;;;;4952439;29;20032;-61
2022/03/29 06:29:44;;;;;;;56.05;33.17;;;;;;;;;;4952013;28;20051;-61
2022/03/29 06:32:10;;;;;;;48.10;29.90;;;;;;;;;;4952226;29;20114;-62
2022/03/29 06:34:36;;;;;;;51.30;28.88;;;;;;;;;;4949511;29;20065;-62
2022/03/29 06:37:02;;;;;;;45.88;27.38;;;;;;;;;;4952138;29;20094;-61
2022/03/29 06:39:30;;;;;;;50.75;29.35;;;;;;;;;;4952135;29;20054;-62
2022/03/29 06:41:56;;;;;;;47.30;26.75;;;;;;;;;;4951921;29;20027;-62
2022/03/29 06:44:22;;;;;;;44.85;26.92;;;;;;;;;;4952250;29;20026;-62
2022/03/29 06:46:49;;;;;;;49.40;27.58;;;;;;;;;;4951910;29;20066;-61
2022/03/29 06:49:16;;;;;;;46.90;28.70;;;;;;;;;;4952004;29;20027;-63
2022/03/29 06:51:44;;;;;;;44.67;27.13;;;;;;;;;;4952964;29;20086;-63
2022/03/29 06:54:10;;;;;;;48.05;28.00;;;;;;;;;;4952205;29;20031;-61
2022/03/29 06:56:36;;;;;;;51.78;28.50;;;;;;;;;;4953026;29;20051;-62
2022/03/29 06:59:03;;;;;;;53.83;29.77;;;;;;;;;;4953136;29;20450;-61
2022/03/29 07:01:29;;;;;;;48.95;28.63;;;;;;;;;;4952985;29;20035;-61
2022/03/29 07:03:59;;;;;;;54.78;32.25;;;;;;;;;;4952923;29;20031;-62
2022/03/29 07:06:25;;;;;;;50.08;28.80;;;;;;;;;;4952508;29;20032;-61
2022/03/29 07:11:36;;;;;;;57.15;34.15;;;;;;;;;;4952741;29;20133;-61
2022/03/29 07:14:06;;;;;;;55.17;29.83;;;;;;;;;;4952822;29;20102;-61
2022/03/29 07:16:32;;;;;;;56.03;30.88;;;;;;;;;;4952478;29;20505;-62
2022/03/29 07:18:58;;;;;;;50.83;29.40;;;;;;;;;;4952955;29;20035;-62
2022/03/29 07:21:25;;;;;;;55.65;31.77;;;;;;;;;;4952823;29;20101;-62
2022/03/29 07:23:51;;;;;;;48.90;30.50;;;;;;;;;;4952566;29;20024;-60
2022/03/29 07:26:17;;;;;;;52.47;30.23;;;;;;;;;;4952620;29;20023;-62
2022/03/29 07:28:43;;;;;;;47.92;30.70;;;;;;;;;;4952723;28;20029;-62
2022/03/29 07:31:10;;;;;;;48.38;30.40;;;;;;;;;;4952097;29;20110;-62
2022/03/29 07:33:36;;;;;;;53.70;32.13;;;;;;;;;;4952681;29;20044;-61
2022/03/29 07:36:03;;;;;;;57.08;31.67;;;;;;;;;;4956076;28;20039;-62
2022/03/29 07:38:29;;;;;;;49.78;30.92;;;;;;;;;;4956537;29;20023;-61
2022/03/29 07:40:55;;;;;;;48.75;30.30;;;;;;;;;;4956273;29;20033;-62
2022/03/29 07:43:22;;;;;;;55.13;31.27;;;;;;;;;;4956370;29;20047;-62
2022/03/29 07:45:48;;;;;;;47.22;30.67;;;;;;;;;;4956145;29;20103;-61
2022/03/29 07:48:14;;;;;;;48.05;31.35;;;;;;;;;;4956275;29;20098;-62
2022/03/29 07:50:41;;;;;;;49.47;32.25;;;;;;;;;;4956396;29;20031;-62
2022/03/29 07:53:07;;;;;;;49.10;30.20;;;;;;;;;;4956166;29;20078;-62
2022/03/29 07:55:35;;;;;;;51.95;31.08;;;;;;;;;;4956062;29;20035;-62
2022/03/29 07:58:01;;;;;;;49.63;28.73;;;;;;;;;;4956439;29;20035;-62
2022/03/29 08:00:35;;;;;;;50.42;29.90;;;;;;;;;;4955884;29;20031;-63
2022/03/29 08:03:02;;;;;;;46.00;28.75;;;;;;;;;;4953493;28;20135;-62
2022/03/29 08:05:29;;;;;;;49.75;30.70;;;;;;;;;;4954479;29;20024;-63
2022/03/29 08:07:57;;;;;;;43.42;25.77;;;;;;;;;;4953516;29;20566;-62
2022/03/29 08:10:23;;;;;;;45.65;29.80;;;;;;;;;;4935177;29;20398;-62
2022/03/29 08:12:50;;;;;;;47.45;28.27;;;;;;;;;;4942380;29;20035;-61
2022/03/29 08:15:16;;;;;;;47.67;27.77;;;;;;;;;;4954721;29;20024;-61
2022/03/29 08:17:42;;;;;;;45.75;29.40;;;;;;;;;;4946306;29;20046;-61
2022/03/29 08:20:08;;;;;;;45.33;28.17;;;;;;;;;;4938293;28;20027;-62
2022/03/29 08:22:35;;;;;;;44.75;28.65;;;;;;;;;;4967735;28;20032;-60
2022/03/29 08:25:02;;;;;;;42.47;28.33;;;;;;;;;;4950320;29;20037;-62
2022/03/29 08:27:28;;;;;;;45.83;27.50;;;;;;;;;;4954095;29;20483;-60
2022/03/29 08:29:54;;;;;;;43.78;28.55;;;;;;;;;;4955549;28;20031;-61
2022/03/29 08:32:20;;;;;;;47.72;27.83;;;;;;;;;;4954463;29;21014;-62
2022/03/29 08:34:47;;;;;;;46.97;27.48;;;;;;;;;;4954057;29;20055;-61
2022/03/29 08:37:13;;;;;;;46.65;27.95;;;;;;;;;;4954013;29;20078;-61
2022/03/29 08:39:39;;;;;;;39.60;26.67;;;;;;;;;;4955133;29;20032;-59
2022/03/29 08:42:08;;;;;;;37.83;24.73;;;;;;;;;;4960641;28;20046;-61
2022/03/29 08:44:34;;;;;;;40.88;25.63;;;;;;;;;;4940743;28;20550;-64
2022/03/29 08:47:01;;;;;;;41.85;26.27;;;;;;;;;;4950354;28;20162;-64
2022/03/29 08:49:27;;;;;;;42.20;26.40;;;;;;;;;;4944044;29;20506;-63
2022/03/29 08:51:55;;;;;;;44.60;26.77;;;;;;;;;;4951287;29;20023;-62
2022/03/29 08:54:21;;;;;;;40.15;26.50;;;;;;;;;;4954036;29;20494;-62
2022/03/29 08:56:47;;;;;;;38.35;25.35;;;;;;;;;;4954725;29;20039;-62
2022/03/29 08:59:13;;;;;;;43.78;26.98;;;;;;;;;;4963503;28;20045;-62
2022/03/29 09:01:39;;;;;;;40.70;26.30;;;;;;;;;;4960812;28;20122;-61
2022/03/29 09:04:15;;;;;;;47.72;26.45;;;;;;;;;;4953718;29;20384;-62
2022/03/29 09:06:50;;;;;;;38.63;25.08;;;;;;;;;;4955029;29;20030;-63
2022/03/29 09:09:36;;;;;;;40.80;24.67;;;;;;;;;;4963921;28;20029;-62
2022/03/29 09:12:13;;;;;;;40.47;24.55;;;;;;;;;;4958043;28;20094;-62
2022/03/29 09:14:51;;;;;;;42.38;26.48;;;;;;;;;;4944522;28;20051;-62
2022/03/29 09:17:36;;;;;;;43.17;26.05;;;;;;;;;;4964372;28;20046;-63
2022/03/29 09:20:22;;;;;;;39.03;24.05;;;;;;;;;;4969242;28;20062;-62
2022/03/29 09:22:50;;;;;;;37.03;24.02;;;;;;;;;;4946304;28;20034;-63
2022/03/29 09:25:20;;;;;;;43.20;24.02;;;;;;;;;;4963898;28;20038;-63
2022/03/29 09:28:02;;;;;;;42.60;23.50;;;;;;;;;;4967788;28;20043;-62
2022/03/29 09:30:38;;;;;;;37.20;23.30;;;;;;;;;;4957434;28;20046;-63
2022/03/29 09:33:06;;;;;;;38.60;24.67;;;;;;;;;;4950803;28;20499;-63
2022/03/29 09:35:33;;;;;;;36.83;23.35;;;;;;;;;;4962205;28;20032;-62
2022/03/29 09:38:01;;;;;;;39.88;23.25;;;;;;;;;;4969082;28;20043;-63
2022/03/29 09:40:34;;;;;;;41.78;22.25;;;;;;;;;;4957248;28;20030;-62
2022/03/29 09:43:01;;;;;;;36.70;22.48;;;;;;;;;;4966127;28;20534;-61
2022/03/29 09:45:40;;;;;;;39.25;22.13;;;;;;;;;;4964947;28;20367;-63
2022/03/29 09:48:20;;;;;;;41.08;22.52;;;;;;;;;;4956163;28;20136;-63
2022/03/29 09:50:46;;;;;;;37.50;22.38;;;;;;;;;;4966158;28;20027;-62
2022/03/29 09:53:32;;;;;;;37.08;22.65;;;;;;;;;;4961382;28;20023;-61
2022/03/29 09:56:02;;;;;;;35.60;22.00;;;;;;;;;;4955972;28;20045;-63
2022/03/29 09:58:28;;;;;;;37.40;21.98;;;;;;;;;;4968132;28;20432;-61
2022/03/29 10:00:57;;;;;;;40.92;21.70;;;;;;;;;;4953095;28;20036;-62
2022/03/29 10:03:26;;;;;;;36.78;21.73;;;;;;;;;;4945220;28;20534;-63
2022/03/29 10:05:54;;;;;;;35.72;21.00;;;;;;;;;;4957799;28;20378;-62
2022/03/29 10:11:13;;;;;;;37.00;21.30;;;;;;;;;;4961265;28;20037;-62
2022/03/29 10:13:39;;;;;;;34.83;21.25;;;;;;;;;;4959042;28;20023;-62
2022/03/29 10:16:06;;;;;;;38.42;21.83;;;;;;;;;;4967881;28;20057;-62
2022/03/29 10:18:32;;;;;;;33.15;21.58;;;;;;;;;;4955480;28;20106;-61
2022/03/29 10:21:00;;;;;;;37.40;22.20;;;;;;;;;;4964481;28;20098;-61
2022/03/29 10:23:28;;;;;;;39.53;22.70;;;;;;;;;;4962699;28;20612;-61
2022/03/29 10:25:55;;;;;;;36.25;22.17;;;;;;;;;;4956833;28;20451;-62
2022/03/29 10:28:25;;;;;;;35.30;21.70;;;;;;;;;;4967235;28;20023;-61
2022/03/29 10:30:51;;;;;;;37.65;21.67;;;;;;;;;;4952775;28;20054;-60
2022/03/29 10:33:18;;;;;;;43.53;21.95;;;;;;;;;;4941757;29;20066;-62
2022/03/29 10:36:17;;;;;;;34.70;21.83;;;;;;;;;;4951752;29;20692;-62
2022/03/29 10:38:46;;;;;;;35.40;22.83;;;;;;;;;;4891999;29;20052;-63
2022/03/29 10:41:28;;;;;;;42.15;20.67;;;;;;;;;;4900400;29;20155;-62
2022/03/29 10:44:10;;;;;;;27.03;15.70;;;;;;;;;;4896672;29;20524;-62
2022/03/29 10:46:50;;;;;;;41.92;21.67;;;;;;;;;;4892232;29;20478;-61
2022/03/29 10:49:22;;;;;;;44.38;20.70;;;;;;;;;;4901201;29;20150;-60
2022/03/29 10:51:49;;;;;;;25.00;15.32;;;;;;;;;;4897500;29;20073;-61
2022/03/29 10:54:25;;;;;;;36.67;21.42;;;;;;;;;;4890968;29;20111;-66
2022/03/29 10:57:14;;;;;;;33.28;21.23;;;;;;;;;;4897656;29;20039;-61
2022/03/29 10:59:40;;;;;;;34.22;21.48;;;;;;;;;;4897033;29;20047;-62
2022/03/29 11:02:09;;;;;;;34.45;21.45;;;;;;;;;;4906943;29;20063;-62
2022/03/29 11:04:35;;;;;;;35.17;22.00;;;;;;;;;;4906474;29;20037;-62
2022/03/29 11:07:07;;;;;;;37.28;21.50;;;;;;;;;;4882626;29;20029;-61
2022/03/29 11:09:34;;;;;;;34.42;22.33;;;;;;;;;;4898219;29;20037;-63
2022/03/29 11:12:00;;;;;;;37.65;22.70;;;;;;;;;;4891188;29;20037;-61
2022/03/29 11:14:35;;;;;;;33.60;21.58;;;;;;;;;;4923185;29;20043;-62
2022/03/29 11:17:08;;;;;;;35.40;21.35;;;;;;;;;;4946962;29;20435;-62
2022/03/29 11:19:48;;;;;;;34.22;20.88;;;;;;;;;;4949367;29;20061;-63
2022/03/29 11:22:42;;;;;;;37.80;22.20;;;;;;;;;;4946451;29;20034;-61
2022/03/29 11:25:13;;;;;;;33.80;21.38;;;;;;;;;;4950638;29;20028;-62
2022/03/29 11:27:39;;;;;;;35.30;21.05;;;;;;;;;;4949261;29;20098;-62
2022/03/29 11:30:07;;;;;;;32.42;21.50;;;;;;;;;;4948820;28;20410;-63
2022/03/29 11:32:34;;;;;;;40.25;20.77;;;;;;;;;;4946746;29;20027;-62
2022/03/29 11:35:03;;;;;;;48.40;22.40;;;;;;;;;;4949713;29;20031;-63
2022/03/29 11:37:30;;;;;;;35.67;20.30;;;;;;;;;;4948898;29;20497;-61
2022/03/29 11:39:57;;;;;;;33.40;20.52;;;;;;;;;;4949815;29;20082;-60
2022/03/29 11:42:24;;;;;;;64.82;22.67;;;;;;;;;;4949506;29;20446;-61
2022/03/29 11:44:51;;;;;;;37.50;21.05;;;;;;;;;;4950826;29;20015;-61
2022/03/29 11:47:18;;;;;;;32.08;20.80;;;;;;;;;;4946059;29;20394;-61
2022/03/29 11:49:49;;;;;;;35.92;21.05;;;;;;;;;;4949119;29;20543;-62
2022/03/29 11:52:19;;;;;;;37.40;22.13;;;;;;;;;;4948344;29;20031;-62
2022/03/29 11:54:51;;;;;;;33.47;21.45;;;;;;;;;;4949346;29;20027;-62
2022/03/29 11:57:17;;;;;;;;;;;;;;;;;;4950087;29;20367;-60
2022/03/29 11:59:44;;;;;;;34.35;20.95;;;;;;;;;;4949107;29;20446;-63
2022/03/29 12:02:10;;;;;;;38.28;21.55;;;;;;;;;;4949320;29;20052;-61
2022/03/29 12:04:39;;;;;;;33.08;21.58;;;;;;;;;;4949957;29;20039;-63
2022/03/29 12:07:06;;;;;;;33.90;21.42;;;;;;;;;;4951040;29;20051;-64
2022/03/29 12:09:32;;;;;;;36.65;21.75;;;;;;;;;;4950825;29;20035;-62
2022/03/29 12:12:01;;;;;;;33.88;20.27;;;;;;;;;;4950541;29;20059;-61
2022/03/29 12:14:27;;;;;;;35.92;20.83;;;;;;;;;;4951596;29;20512;-61
2022/03/29 12:16:57;;;;;;;36.97;20.85;;;;;;;;;;4951619;29;20391;-62
2022/03/29 12:19:27;;;;;;;36.92;21.45;;;;;;;;;;4951891;29;20448;-61
2022/03/29 12:21:56;;;;;;;31.80;20.70;;;;;;;;;;4953710;28;20055;-62
2022/03/29 12:24:23;;;;;;;29.83;20.70;;;;;;;;;;4955513;29;20546;-62
2022/03/29 12:27:04;;;;;;;34.25;21.45;;;;;;;;;;4955472;29;20027;-61
2022/03/29 12:29:30;;;;;;;33.22;20.85;;;;;;;;;;4955346;28;20042;-61
2022/03/29 12:31:57;;;;;;;35.25;21.38;;;;;;;;;;4955473;29;20476;-62
2022/03/29 12:34:24;;;;;;;34.75;20.10;;;;;;;;;;4955482;29;20055;-61
2022/03/29 12:36:54;;;;;;;34.60;21.20;;;;;;;;;;4956080;29;20031;-61
2022/03/29 12:39:20;;;;;;;30.20;20.75;;;;;;;;;;4955524;29;20051;-62
2022/03/29 12:41:54;;;;;;;32.03;20.83;;;;;;;;;;4954968;29;20451;-62
2022/03/29 12:44:43;;;;;;;37.30;21.23;;;;;;;;;;4955357;29;20081;-61
2022/03/29 12:47:10;;;;;;;34.97;21.67;;;;;;;;;;4954823;29;20023;-62
2022/03/29 12:49:37;;;;;;;33.15;20.83;;;;;;;;;;4954967;29;20495;-61
2022/03/29 12:52:04;;;;;;;34.13;22.10;;;;;;;;;;4955231;29;20030;-61
2022/03/29 12:54:35;;;;;;;34.10;21.58;;;;;;;;;;4955196;29;20054;-61
2022/03/29 12:57:02;;;;;;;29.70;20.58;;;;;;;;;;4954520;29;20060;-62
2022/03/29 12:59:28;;;;;;;29.10;19.48;;;;;;;;;;4954919;29;20027;-62
2022/03/29 13:02:01;;;;;;;30.95;20.33;;;;;;;;;;4954953;29;20031;-61
2022/03/29 13:04:37;;;;;;;35.50;21.08;;;;;;;;;;4954226;29;20035;-63
2022/03/29 13:07:04;;;;;;;34.92;21.30;;;;;;;;;;4954692;29;20030;-62
2022/03/29 13:09:30;;;;;;;32.50;20.95;;;;;;;;;;4954751;29;20050;-63
2022/03/29 13:12:09;;;;;;;34.20;20.23;;;;;;;;;;4954590;29;20136;-62
2022/03/29 13:14:38;;;;;;;32.47;19.80;;;;;;;;;;4954491;29;20039;-64
2022/03/29 13:17:04;;;;;;;29.55;18.90;;;;;;;;;;4954274;29;20038;-61
2022/03/29 13:19:31;;;;;;;31.50;19.85;;;;;;;;;;4954041;29;20066;-62
2022/03/29 13:22:01;;;;;;;31.30;18.75;;;;;;;;;;4953910;28;20106;-60
2022/03/29 13:24:37;;;;;;;32.38;20.40;;;;;;;;;;4964052;28;20086;-61
2022/03/29 13:27:04;;;;;;;34.25;19.40;;;;;;;;;;4965458;28;20023;-63
2022/03/29 13:29:31;;;;;;;35.47;21.13;;;;;;;;;;4962930;28;20046;-62
2022/03/29 13:31:58;;;;;;;37.33;21.55;;;;;;;;;;4952862;28;20023;-62
2022/03/29 13:34:24;;;;;;;32.42;20.23;;;;;;;;;;4953928;29;20048;-62
2022/03/29 13:36:50;;;;;;;203.80;92.10;;;;;;;;;;4953288;29;20415;-62
2022/03/29 13:39:16;;;;;;;38.97;22.08;;;;;;;;;;4952966;29;20047;-63
2022/03/29 13:41:42;;;;;;;90.32;44.65;;;;;;;;;;4952912;29;20114;-63
2022/03/29 13:44:08;;;;;;;252.43;116.80;;;;;;;;;;4952397;28;20063;-63
2022/03/29 13:46:35;;;;;;;37.20;24.00;;;;;;;;;;4953386;29;20054;-62
2022/03/29 13:49:02;;;;;;;35.15;23.35;;;;;;;;;;4954028;29;20031;-62
2022/03/29 13:51:28;;;;;;;59.65;32.38;;;;;;;;;;4953905;28;20027;-62
2022/03/29 13:53:54;;;;;;;154.55;73.70;;;;;;;;;;4954086;29;20035;-61
2022/03/29 13:56:21;;;;;;;180.23;82.93;;;;;;;;;;4953967;29;20035;-62
2022/03/29 13:58:48;;;;;;;135.63;64.68;;;;;;;;;;4963133;28;20532;-62
2022/03/29 14:01:14;;;;;;;180.93;86.32;;;;;;;;;;4953463;28;20387;-60
2022/03/29 14:03:40;;;;;;;114.63;57.95;;;;;;;;;;4955147;28;20034;-62
2022/03/29 14:06:06;;;;;;;107.82;56.60;;;;;;;;;;4952552;29;20538;-63
2022/03/29 14:08:32;;;;;;;32.85;21.15;;;;;;;;;;4952476;29;20045;-61
2022/03/29 14:11:00;;;;;;;42.03;24.33;;;;;;;;;;4957693;28;20041;-62
2022/03/29 14:13:27;;;;;;;41.45;24.70;;;;;;;;;;4967843;28;20039;-62
2022/03/29 14:15:54;;;;;;;49.72;28.65;;;;;;;;;;4953170;29;20015;-63
2022/03/29 14:18:22;;;;;;;54.97;31.23;;;;;;;;;;4953142;29;20507;-62
2022/03/29 14:20:51;;;;;;;88.30;43.10;;;;;;;;;;4953215;29;20019;-62
2022/03/29 14:23:19;;;;;;;35.17;22.55;;;;;;;;;;4953730;28;20035;-62
2022/03/29 14:25:46;;;;;;;30.65;21.85;;;;;;;;;;4953193;28;20055;-62
2022/03/29 14:28:12;;;;;;;53.15;30.25;;;;;;;;;;4953295;29;20037;-62
2022/03/29 14:30:39;;;;;;;34.25;21.02;;;;;;;;;;4953516;28;20031;-62